Avon, Utah
Current Conditions -  °F | °C
As of 7:35 AM on Sunday 23 Nov 2014 (Local Time) from KBMC Reporting Station
Overcast Overcast  
Wind Chill: 29°   Ceiling: 4500
Heat Index: 34°   Visibility: 10mi
Dew Point: 26°   Wind: 6mph
Humidity: 71%   Direction: 320°NW
Pressure: 30.15"   Gusts: NA
Location:  41.5397°N, 111.856°W
Report Text: KBMC 231435Z AUTO 32005KT 10SM SCT039 OVC045 01/M04 A3015 RMK AO1 T00121036
Loading
Personal Weather Stations






























Interactive Weather Map New forecast layout! Learn more

10-Day Weather Forecast

Advertisements
Track Severe Weather on mobile